Time;durP1;ratioP1;P1;durP2;ratioP2;P2;SDS_P1;SDS_P2;PMS_P1;PMS_P2;Temp;Humidity;BMP_temperature;BMP_pressure;BME280_temperature;BME280_humidity;BME280_pressure;Samples;Min_cycle;Max_cycle;Signal;HPM_P1;HPM_P2
2022/02/08 00:01:48;;;;;;;15.65;3.33;;;7.30;67.70;;;;;;5082663;28;20028;-70
2022/02/08 00:04:14;;;;;;;10.50;3.13;;;7.20;67.20;;;;;;5078115;28;20036;-71
2022/02/08 00:06:45;;;;;;;9.32;2.30;;;7.20;66.60;;;;;;5077976;28;20040;-71
2022/02/08 00:09:14;;;;;;;10.65;2.40;;;7.20;66.30;;;;;;5078015;28;20034;-71
2022/02/08 00:11:40;;;;;;;11.00;2.78;;;7.20;66.60;;;;;;5077886;28;20380;-71
2022/02/08 00:14:06;;;;;;;9.02;3.00;;;7.10;66.50;;;;;;5077820;28;20024;-71
2022/02/08 00:16:32;;;;;;;9.63;3.13;;;7.10;66.70;;;;;;5096323;28;20028;-72
2022/02/08 00:18:58;;;;;;;15.45;3.25;;;7.10;66.60;;;;;;5076564;28;20032;-70
2022/02/08 00:21:24;;;;;;;12.30;2.97;;;7.10;66.50;;;;;;5057958;28;20383;-71
2022/02/08 00:23:50;;;;;;;9.10;2.63;;;7.10;66.60;;;;;;5057536;28;20029;-71
2022/02/08 00:26:16;;;;;;;10.93;2.72;;;7.10;66.70;;;;;;5057458;28;20025;-71
2022/02/08 00:28:42;;;;;;;9.70;2.10;;;7.10;66.70;;;;;;5057031;28;20456;-71
2022/02/08 00:31:08;;;;;;;7.22;2.13;;;7.10;66.90;;;;;;5056902;28;20021;-71
2022/02/08 00:33:34;;;;;;;9.35;2.65;;;7.20;67.00;;;;;;5074881;28;20083;-72
2022/02/08 00:36:01;;;;;;;12.90;3.17;;;7.20;66.90;;;;;;5057295;28;20575;-71
2022/02/08 00:38:28;;;;;;;6.93;2.60;;;7.20;67.00;;;;;;5075370;28;20033;-71
2022/02/08 00:40:58;;;;;;;9.05;2.45;;;7.20;67.00;;;;;;5067608;28;20028;-71
2022/02/08 00:43:28;;;;;;;13.93;3.28;;;7.20;67.10;;;;;;5094301;28;20067;-72
2022/02/08 00:46:02;;;;;;;7.53;2.08;;;7.20;66.90;;;;;;5095253;28;20553;-71
2022/02/08 00:48:38;;;;;;;6.57;1.98;;;7.30;67.20;;;;;;5095399;28;20035;-72
2022/02/08 00:51:04;;;;;;;11.32;2.75;;;7.30;67.30;;;;;;5083869;28;20517;-71
2022/02/08 00:53:30;;;;;;;5.38;2.38;;;7.30;67.20;;;;;;5057087;28;20482;-71
2022/02/08 00:55:56;;;;;;;7.28;2.08;;;7.40;67.40;;;;;;5074805;28;20021;-71
2022/02/08 00:58:22;;;;;;;6.93;2.33;;;7.40;67.50;;;;;;5084780;28;20028;-70
2022/02/08 01:00:48;;;;;;;9.13;2.28;;;7.40;67.20;;;;;;5095062;28;20032;-71
2022/02/08 01:03:16;;;;;;;6.68;2.55;;;7.40;67.20;;;;;;5094858;28;20459;-71
2022/02/08 01:05:47;;;;;;;9.77;2.05;;;7.40;67.00;;;;;;5072560;28;20050;-71
2022/02/08 01:08:13;;;;;;;9.20;2.22;;;7.50;66.90;;;;;;5056861;28;20044;-71
2022/02/08 01:10:41;;;;;;;12.07;2.97;;;7.50;66.80;;;;;;5074824;28;20408;-71
2022/02/08 01:13:08;;;;;;;6.95;2.13;;;7.50;66.60;;;;;;5056559;28;20361;-71
2022/02/08 01:15:34;;;;;;;5.70;2.20;;;7.50;66.60;;;;;;5074626;28;20024;-71
2022/02/08 01:18:01;;;;;;;9.15;2.50;;;7.50;66.60;;;;;;5056636;28;20123;-71
2022/02/08 01:20:36;;;;;;;9.32;2.78;;;7.50;66.40;;;;;;5056554;28;20074;-71
2022/02/08 01:23:06;;;;;;;5.15;2.03;;;7.50;66.30;;;;;;5074751;28;20024;-72
2022/02/08 01:25:47;;;;;;;7.95;2.45;;;7.50;66.20;;;;;;5074111;28;20033;-71
2022/02/08 01:33:40;;;;;;;9.13;2.28;;;7.60;65.90;;;;;;5085697;28;20141;-71
2022/02/08 01:49:30;;;;;;;8.82;2.20;;;7.50;63.80;;;;;;4969543;28;20066;-72
2022/02/08 01:51:58;;;;;;;5.03;1.75;;;7.50;63.70;;;;;;4972742;28;20411;-71
2022/02/08 01:54:24;;;;;;;8.65;1.60;;;7.50;63.70;;;;;;4972721;28;20101;-71
2022/02/08 01:56:52;;;;;;;8.57;2.10;;;7.50;63.90;;;;;;4956707;28;20039;-71
2022/02/08 01:59:19;;;;;;;9.05;2.05;;;7.40;63.60;;;;;;4956315;28;20039;-71
2022/02/08 02:01:44;;;;;;;7.35;1.90;;;7.40;63.50;;;;;;4956454;28;20033;-71
2022/02/08 02:04:10;;;;;;;5.88;2.08;;;7.40;63.70;;;;;;4972110;28;20038;-70
2022/02/08 02:06:37;;;;;;;10.60;1.92;;;7.40;63.60;;;;;;4956216;28;20050;-71
2022/02/08 02:09:05;;;;;;;10.02;1.63;;;7.40;63.80;;;;;;4972342;28;20037;-71
2022/02/08 02:11:31;;;;;;;5.65;2.08;;;7.40;64.70;;;;;;4972294;28;20031;-71
2022/02/08 02:13:57;;;;;;;7.45;1.88;;;7.40;63.80;;;;;;4972441;28;20073;-72
2022/02/08 02:17:09;;;;;;;7.03;1.65;;;7.40;63.90;;;;;;4972514;28;20034;-71
2022/02/08 02:19:09;;;;;;;7.93;2.00;;;7.40;63.70;;;;;;5038436;28;20521;-72
2022/02/08 02:21:35;;;;;;;8.40;2.40;;;7.30;63.50;;;;;;5068277;28;20075;-71
2022/02/08 02:24:01;;;;;;;6.07;1.58;;;7.30;63.60;;;;;;5055390;28;20086;-72
2022/02/08 02:26:26;;;;;;;9.93;1.95;;;7.40;63.50;;;;;;5071944;28;20029;-71
2022/02/08 02:28:52;;;;;;;6.45;1.77;;;7.30;63.60;;;;;;5073063;28;20039;-71
2022/02/08 02:31:19;;;;;;;8.65;2.28;;;7.40;63.80;;;;;;5073094;28;20016;-72
2022/02/08 02:33:45;;;;;;;7.25;2.00;;;7.40;64.00;;;;;;5063396;28;20055;-72
2022/02/08 02:36:13;;;;;;;7.53;1.67;;;7.40;63.90;;;;;;5093148;28;20028;-71
2022/02/08 02:38:39;;;;;;;5.60;1.80;;;7.40;63.80;;;;;;5092156;28;20035;-71
2022/02/08 02:41:06;;;;;;;5.80;2.17;;;7.40;63.90;;;;;;5058105;28;20047;-71
2022/02/08 02:43:32;;;;;;;12.52;2.45;;;7.40;63.90;;;;;;5060340;28;20299;-71
2022/02/08 02:46:00;;;;;;;7.68;1.52;;;7.40;63.30;;;;;;5051651;28;20029;-72
2022/02/08 02:48:26;;;;;;;7.30;1.73;;;7.40;63.30;;;;;;5071071;28;20029;-71
2022/02/08 02:50:54;;;;;;;12.95;2.20;;;7.40;63.60;;;;;;5073092;28;20068;-71
2022/02/08 02:53:20;;;;;;;7.50;2.00;;;7.40;63.30;;;;;;5073108;28;20123;-72
2022/02/08 02:55:46;;;;;;;9.07;2.08;;;7.40;63.00;;;;;;5067835;28;20056;-72
2022/02/08 02:58:14;;;;;;;11.48;2.47;;;7.40;62.90;;;;;;5089334;28;20031;-72
2022/02/08 03:00:46;;;;;;;7.72;2.20;;;7.40;62.70;;;;;;5092884;28;20024;-71
2022/02/08 03:19:34;;;;;;;7.32;1.70;;;7.40;63.10;;;;;;5077464;28;20036;-72
2022/02/08 03:21:59;;;;;;;6.93;2.00;;;7.40;63.50;;;;;;5072319;28;20028;-72
2022/02/08 03:24:25;;;;;;;5.35;1.70;;;7.40;63.30;;;;;;5072966;28;20025;-72
2022/02/08 03:26:51;;;;;;;6.90;1.92;;;7.40;63.30;;;;;;5054969;28;20031;-71
2022/02/08 03:29:17;;;;;;;8.40;2.08;;;7.50;63.00;;;;;;5072738;28;20085;-71
2022/02/08 03:31:42;;;;;;;8.90;2.10;;;7.40;62.60;;;;;;5054905;28;20029;-72
2022/02/08 03:34:08;;;;;;;10.23;2.40;;;7.40;62.40;;;;;;5072558;28;20084;-72
2022/02/08 03:36:34;;;;;;;5.60;1.98;;;7.40;62.20;;;;;;5072647;28;20043;-72
2022/02/08 03:39:37;;;;;;;8.07;1.77;;;7.40;63.00;;;;;;5072884;28;20081;-72
2022/02/08 03:41:55;;;;;;;7.18;1.60;;;7.40;62.10;;;;;;5070652;28;20028;-71
2022/02/08 03:44:22;;;;;;;8.57;1.77;;;7.40;62.20;;;;;;5072870;28;20020;-72
2022/02/08 03:46:48;;;;;;;13.65;2.13;;;7.40;62.20;;;;;;5054721;28;20452;-72
2022/02/08 03:49:15;;;;;;;9.95;2.15;;;7.40;62.10;;;;;;5081764;28;20032;-72
2022/02/08 03:51:50;;;;;;;14.63;2.75;;;7.30;61.90;;;;;;5074930;28;20093;-72
2022/02/08 03:54:17;;;;;;;9.27;2.05;;;7.30;62.10;;;;;;5074955;28;20119;-72
2022/02/08 03:56:44;;;;;;;9.40;1.73;;;7.30;62.80;;;;;;5092615;28;20229;-72
2022/02/08 03:59:11;;;;;;;9.80;2.20;;;7.20;61.70;;;;;;5074849;28;20062;-73
2022/02/08 04:06:56;;;;;;;8.40;1.90;;;7.10;61.60;;;;;;5093517;28;20036;-72
2022/02/08 04:09:22;;;;;;;7.03;2.35;;;7.10;61.70;;;;;;5096495;28;20066;-72
2022/02/08 04:12:04;;;;;;;11.27;2.72;;;7.10;62.10;;;;;;5095184;28;20052;-72
2022/02/08 04:14:50;;;;;;;7.78;1.98;;;7.10;62.40;;;;;;5093912;28;20027;-72
2022/02/08 04:17:52;;;;;;;11.70;2.63;;;7.00;62.30;;;;;;5058050;28;20533;-72
2022/02/08 04:34:06;;;;;;;5.85;1.48;;;7.00;62.40;;;;;;5067731;28;20397;-72
2022/02/08 04:41:39;;;;;;;10.00;2.30;;;6.90;62.10;;;;;;5075165;28;20025;-71
2022/02/08 04:44:21;;;;;;;11.77;2.58;;;6.90;62.10;;;;;;5092797;28;20352;-72
2022/02/08 04:49:24;;;;;;;6.85;1.80;;;6.90;62.20;;;;;;5095809;28;20120;-72
2022/02/08 04:51:58;;;;;;;6.32;1.70;;;6.90;62.40;;;;;;5077530;28;20103;-72
2022/02/08 04:54:40;;;;;;;5.32;1.33;;;6.90;62.50;;;;;;5094461;28;20028;-72
2022/02/08 04:57:18;;;;;;;8.40;2.20;;;6.90;62.40;;;;;;5088403;28;20464;-71
2022/02/08 05:27:55;;;;;;;3.78;1.38;;;7.00;61.70;;;;;;5067806;28;20400;-72
2022/02/08 05:41:29;;;;;;;6.50;1.70;;;7.10;61.40;;;;;;5074543;28;20383;-73
2022/02/08 05:48:37;;;;;;;9.13;1.83;;;7.10;61.20;;;;;;5074011;28;20132;-72
2022/02/08 05:51:07;;;;;;;7.22;1.85;;;7.10;61.60;;;;;;5053022;28;20032;-72
2022/02/08 05:53:42;;;;;;;13.40;2.58;;;7.10;61.60;;;;;;5073325;28;20037;-72
2022/02/08 05:56:13;;;;;;;7.50;2.10;;;7.10;61.40;;;;;;5056225;28;20107;-72
2022/02/08 05:58:43;;;;;;;7.47;2.08;;;7.10;61.40;;;;;;5074076;28;20033;-72
2022/02/08 06:01:10;;;;;;;11.13;2.17;;;7.20;61.30;;;;;;5056122;28;20021;-72
2022/02/08 06:03:36;;;;;;;9.25;2.03;;;7.20;60.90;;;;;;5073954;28;20020;-69
2022/02/08 06:06:02;;;;;;;6.13;1.75;;;7.10;61.00;;;;;;5073618;28;20376;-72
2022/02/08 06:08:28;;;;;;;10.63;1.80;;;7.10;60.70;;;;;;5055929;28;20030;-72
2022/02/08 06:11:13;;;;;;;9.57;2.17;;;7.20;60.80;;;;;;5055844;28;20103;-69
2022/02/08 06:13:39;;;;;;;;;;;7.20;60.90;;;;;;5073046;28;20025;-72
2022/02/08 06:16:10;;;;;;;7.50;1.83;;;7.20;61.20;;;;;;5074082;28;19904;-72
2022/02/08 06:18:37;;;;;;;9.75;1.88;;;7.30;61.10;;;;;;5073737;28;20123;-72
2022/02/08 06:21:03;;;;;;;9.60;2.60;;;7.20;60.90;;;;;;5055500;28;20090;-72
2022/02/08 06:23:29;;;;;;;10.48;3.05;;;7.30;60.90;;;;;;5073326;28;20538;-72
2022/02/08 06:25:55;;;;;;;11.50;2.22;;;7.30;60.80;;;;;;5091075;28;20021;-73
2022/02/08 06:28:22;;;;;;;10.10;2.30;;;7.30;60.70;;;;;;5073933;28;20051;-71
2022/02/08 06:30:50;;;;;;;7.60;2.25;;;7.30;60.80;;;;;;5067358;28;20037;-76
2022/02/08 06:33:16;;;;;;;6.53;2.15;;;7.30;60.60;;;;;;5069974;28;20048;-84
2022/02/08 06:35:42;;;;;;;6.10;2.13;;;7.30;60.70;;;;;;5092812;28;20538;-76
2022/02/08 06:38:11;;;;;;;12.73;3.60;;;7.30;60.70;;;;;;5080040;28;20498;-77
2022/02/08 06:40:38;;;;;;;9.32;3.28;;;7.30;60.70;;;;;;5073428;28;20087;-76
2022/02/08 06:43:05;;;;;;;10.88;2.70;;;7.30;60.30;;;;;;5093597;28;20024;-76
2022/02/08 06:45:31;;;;;;;9.40;1.77;;;7.30;60.10;;;;;;5093497;28;20098;-77
2022/02/08 06:47:57;;;;;;;19.77;3.40;;;7.30;60.00;;;;;;5088144;28;20056;-75
2022/02/08 06:50:23;;;;;;;8.48;2.92;;;7.40;60.00;;;;;;5091549;28;20434;-76
2022/02/08 06:52:49;;;;;;;15.60;2.63;;;7.40;60.10;;;;;;5091067;28;20024;-74
2022/02/08 06:55:16;;;;;;;9.10;2.75;;;7.30;59.70;;;;;;5064799;28;20042;-75
2022/02/08 06:57:51;;;;;;;10.55;1.92;;;7.40;59.50;;;;;;5093423;28;20024;-75
2022/02/08 07:00:24;;;;;;;7.75;2.40;;;7.40;59.70;;;;;;5075758;28;20095;-75
2022/02/08 07:02:50;;;;;;;12.20;3.03;;;7.40;59.90;;;;;;5073236;28;20032;-75
2022/02/08 07:05:17;;;;;;;15.57;2.60;;;7.40;59.80;;;;;;5073125;28;20377;-75
2022/02/08 07:07:43;;;;;;;6.03;1.95;;;7.40;59.60;;;;;;5053782;28;20032;-75
2022/02/08 07:10:09;;;;;;;6.85;2.13;;;7.40;59.20;;;;;;5073123;28;20107;-75
2022/02/08 07:12:35;;;;;;;10.77;2.47;;;7.40;59.30;;;;;;5089099;28;20090;-75
2022/02/08 07:15:08;;;;;;;11.77;2.33;;;7.40;59.00;;;;;;5073077;28;20028;-75
2022/02/08 07:17:33;;;;;;;5.85;2.20;;;7.40;58.80;;;;;;5073077;28;20035;-76
2022/02/08 07:19:59;;;;;;;6.13;2.95;;;7.50;58.90;;;;;;5072757;28;20025;-76
2022/02/08 07:22:25;;;;;;;8.73;2.70;;;7.50;59.00;;;;;;5066180;28;20074;-75
2022/02/08 07:24:51;;;;;;;9.75;2.15;;;7.50;58.90;;;;;;5072947;28;20103;-75
2022/02/08 07:27:17;;;;;;;9.45;2.58;;;7.50;58.70;;;;;;5072890;28;20039;-75
2022/02/08 07:29:50;;;;;;;6.05;2.03;;;7.50;58.40;;;;;;5051779;28;20025;-74
2022/02/08 07:32:16;;;;;;;11.85;2.10;;;7.60;58.60;;;;;;5069636;28;20365;-76
2022/02/08 07:34:51;;;;;;;7.35;2.10;;;7.60;58.60;;;;;;5080247;28;20048;-75
2022/02/08 07:39:51;;;;;;;7.07;1.85;;;7.60;58.60;;;;;;5093032;28;20099;-75
2022/02/08 07:42:16;;;;;;;7.40;2.10;;;7.60;58.10;;;;;;5090005;28;20026;-74
2022/02/08 07:44:42;;;;;;;8.60;1.90;;;7.60;58.20;;;;;;5083655;28;20387;-75
2022/02/08 07:47:08;;;;;;;10.82;2.30;;;7.60;58.20;;;;;;5076505;28;20380;-75
2022/02/08 07:49:38;;;;;;;9.00;2.03;;;7.60;58.30;;;;;;5096511;28;20146;-74
2022/02/08 07:52:04;;;;;;;7.13;2.10;;;7.60;57.90;;;;;;5086235;28;20055;-83
2022/02/08 07:54:30;;;;;;;11.15;2.40;;;7.60;58.00;;;;;;5058981;28;20021;-73
2022/02/08 07:56:56;;;;;;;9.43;1.98;;;7.60;57.80;;;;;;5076360;28;20039;-74
2022/02/08 07:59:22;;;;;;;9.18;1.85;;;7.70;58.00;;;;;;5077204;28;20028;-77
2022/02/08 08:01:47;;;;;;;10.65;2.03;;;7.70;58.50;;;;;;5076656;28;20529;-80
2022/02/08 08:04:13;;;;;;;7.82;2.53;;;7.80;58.50;;;;;;5067433;28;20178;-77
2022/02/08 08:06:39;;;;;;;6.65;2.05;;;7.80;58.70;;;;;;5092298;28;20024;-73
2022/02/08 08:09:05;;;;;;;5.75;1.80;;;7.80;58.40;;;;;;5082046;28;20032;-75
2022/02/08 08:11:41;;;;;;;9.07;1.70;;;7.90;58.30;;;;;;5064767;28;20042;-74
2022/02/08 08:14:08;;;;;;;13.88;2.55;;;7.90;58.20;;;;;;5057892;28;20023;-81
2022/02/08 08:19:18;;;;;;;6.30;2.10;;;7.90;57.60;;;;;;5082654;28;20040;-77
2022/02/08 08:21:46;;;;;;;7.30;2.28;;;7.90;57.70;;;;;;5083542;28;20114;-73
2022/02/08 08:24:13;;;;;;;5.63;1.98;;;7.90;57.90;;;;;;5077873;28;20047;-73
2022/02/08 08:26:40;;;;;;;9.75;2.85;;;8.00;57.90;;;;;;5088352;28;20031;-75
2022/02/08 08:29:07;;;;;;;8.35;2.72;;;8.10;58.00;;;;;;5075243;28;20169;-73
2022/02/08 08:31:34;;;;;;;5.38;2.30;;;8.10;58.40;;;;;;5077381;28;20032;-74
2022/02/08 08:34:00;;;;;;;6.72;2.70;;;8.20;58.90;;;;;;5087173;28;20103;-72
2022/02/08 08:36:28;;;;;;;8.10;2.50;;;8.20;58.40;;;;;;5078906;28;20025;-72
2022/02/08 08:38:57;;;;;;;9.32;2.40;;;8.30;58.50;;;;;;5080853;28;20368;-72
2022/02/08 08:51:51;;;;;;;9.07;2.10;;;8.40;57.70;;;;;;5095256;28;20024;-75
2022/02/08 08:54:18;;;;;;;7.40;2.20;;;8.50;58.10;;;;;;5093861;28;20111;-77
2022/02/08 08:56:45;;;;;;;10.80;2.45;;;8.50;57.80;;;;;;5094938;28;20028;-74
2022/02/08 08:59:13;;;;;;;4.32;1.60;;;8.60;56.80;;;;;;5073837;28;20522;-74
2022/02/08 09:01:43;;;;;;;10.25;2.13;;;8.60;56.60;;;;;;5095214;28;20031;-75
2022/02/08 09:04:09;;;;;;;7.80;1.80;;;8.70;56.70;;;;;;5084005;28;20059;-74
2022/02/08 09:06:37;;;;;;;12.35;2.42;;;8.70;56.40;;;;;;5073134;28;20031;-75
2022/02/08 09:09:12;;;;;;;15.05;2.38;;;8.70;56.30;;;;;;5080670;28;20108;-75
2022/02/08 09:11:54;;;;;;;8.60;2.20;;;8.80;56.00;;;;;;5079700;28;20356;-74
2022/02/08 09:14:25;;;;;;;9.43;1.67;;;8.80;56.10;;;;;;5094829;28;20024;-74
2022/02/08 09:20:16;;;;;;;15.65;2.42;;;8.90;55.40;;;;;;5093200;28;20035;-75
2022/02/08 09:30:17;;;;;;;10.65;2.58;;;8.90;55.70;;;;;;5074830;28;20089;-72
2022/02/08 09:32:53;;;;;;;8.85;2.05;;;9.00;56.30;;;;;;5074705;28;20060;-72
2022/02/08 09:35:20;;;;;;;8.95;2.00;;;9.00;55.80;;;;;;5068933;28;20112;-75
2022/02/08 09:37:47;;;;;;;12.02;2.33;;;9.10;55.20;;;;;;5052727;28;20067;-76
2022/02/08 09:40:19;;;;;;;10.23;2.22;;;9.10;54.70;;;;;;5053934;28;20377;-75
2022/02/08 09:42:45;;;;;;;9.00;2.15;;;9.10;54.20;;;;;;5067830;28;20029;-75
2022/02/08 09:45:16;;;;;;;13.73;1.80;;;9.20;54.80;;;;;;5074467;28;20056;-74
2022/02/08 09:47:53;;;;;;;11.38;2.78;;;9.20;55.10;;;;;;5074190;28;20024;-75
2022/02/08 09:50:22;;;;;;;7.32;1.55;;;9.30;55.00;;;;;;5074192;28;20108;-75
2022/02/08 09:52:54;;;;;;;7.93;1.80;;;9.30;54.90;;;;;;5056049;28;20074;-75
2022/02/08 09:55:22;;;;;;;8.65;1.58;;;9.40;54.30;;;;;;5073639;28;20027;-75
2022/02/08 09:57:48;;;;;;;5.38;1.75;;;9.40;53.80;;;;;;5043193;28;20029;-74
2022/02/08 10:00:17;;;;;;;8.50;1.90;;;9.40;53.80;;;;;;5035951;28;20496;-75
2022/02/08 10:02:43;;;;;;;6.20;1.33;;;9.40;53.90;;;;;;5071560;28;20028;-74
2022/02/08 10:05:09;;;;;;;8.18;1.20;;;9.50;53.80;;;;;;5073115;28;20053;-75
2022/02/08 10:07:36;;;;;;;10.40;1.77;;;9.50;53.60;;;;;;5055890;28;20039;-75
2022/02/08 10:10:10;;;;;;;11.98;2.63;;;9.60;53.90;;;;;;5055934;28;20025;-74
2022/02/08 10:12:57;;;;;;;;;;;9.60;53.50;;;;;;5036039;28;20127;-74
2022/02/08 10:24:16;;;;;;;9.45;2.22;;;9.90;53.30;;;;;;4972647;28;20125;-86
2022/02/08 10:26:57;;;;;;;13.95;2.38;;;10.00;53.70;;;;;;4972975;28;20026;-85
2022/02/08 10:37:46;;;;;;;10.20;2.22;;;10.30;53.10;;;;;;4972977;28;20561;-83
2022/02/08 10:40:16;;;;;;;6.40;1.33;;;10.40;53.10;;;;;;4972762;28;20070;-84
2022/02/08 10:42:54;;;;;;;8.23;1.63;;;10.40;52.60;;;;;;4972513;28;20071;-83
2022/02/08 10:45:26;;;;;;;9.10;1.80;;;10.40;52.10;;;;;;4956325;28;20027;-82
2022/02/08 10:47:58;;;;;;;9.07;2.35;;;10.40;51.60;;;;;;4972163;28;20125;-82
2022/02/08 10:50:26;;;;;;;6.93;1.80;;;10.50;51.10;;;;;;4972422;28;20557;-83
2022/02/08 10:52:53;;;;;;;8.20;1.90;;;10.50;51.10;;;;;;4972229;28;20026;-81
2022/02/08 10:57:52;;;;;;;12.65;2.45;;;10.40;51.20;;;;;;4972270;28;20030;-81
2022/02/08 11:00:28;;;;;;;8.88;2.42;;;10.50;52.10;;;;;;5001830;28;20039;-81
2022/02/08 11:02:58;;;;;;;6.88;1.85;;;10.60;51.60;;;;;;5035372;28;20472;-80
2022/02/08 11:05:39;;;;;;;9.48;1.85;;;10.70;51.30;;;;;;5053174;28;20031;-78
2022/02/08 11:08:19;;;;;;;12.32;1.70;;;10.80;51.10;;;;;;5048432;28;20036;-77
2022/02/08 11:16:06;;;;;;;8.25;1.55;;;11.00;51.60;;;;;;5073891;28;20017;-75
2022/02/08 11:18:45;;;;;;;11.77;1.90;;;11.00;51.40;;;;;;5077304;28;20055;-76
2022/02/08 11:21:26;;;;;;;9.85;1.30;;;11.10;51.10;;;;;;5059201;28;20519;-75
2022/02/08 11:26:36;;;;;;;5.57;1.50;;;11.20;51.10;;;;;;5076795;28;20369;-75
2022/02/08 11:29:50;;;;;;;8.05;1.60;;;11.10;51.00;;;;;;5076738;28;20085;-75
2022/02/08 11:32:45;;;;;;;12.23;1.83;;;11.10;51.30;;;;;;4975515;28;20047;-76
2022/02/08 11:44:46;;;;;;;2.85;1.38;;;11.20;50.90;;;;;;4956204;29;20067;-75
2022/02/08 11:49:36;;;;;;;8.02;1.83;;;11.20;50.80;;;;;;4956510;29;20539;-75
2022/02/08 12:00:14;;;;;;;9.05;1.90;;;11.20;50.80;;;;;;4955975;29;20043;-75
2022/02/08 12:03:18;;;;;;;7.65;1.50;;;11.30;51.10;;;;;;4955692;29;20118;-75
2022/02/08 12:07:58;;;;;;;6.30;1.65;;;11.20;50.30;;;;;;5013076;28;20037;-75
2022/02/08 12:10:42;;;;;;;15.77;1.83;;;11.20;51.00;;;;;;5038267;28;20033;-76
2022/02/08 12:28:16;;;;;;;6.82;1.98;;;11.40;50.40;;;;;;5055775;28;20078;-75
2022/02/08 12:48:42;;;;;;;11.52;1.45;;;11.60;49.60;;;;;;5055427;28;20025;-75
2022/02/08 13:02:28;;;;;;;7.97;2.30;;;11.40;49.90;;;;;;4973966;28;20046;-76
2022/02/08 14:11:04;;;;;;;4.15;1.45;;;11.60;53.60;;;;;;5054098;28;20086;-75
2022/02/08 14:16:10;;;;;;;8.85;1.85;;;11.80;54.10;;;;;;5053535;28;20025;-75
2022/02/08 14:19:31;;;;;;;4.60;1.55;;;11.80;54.20;;;;;;5053872;28;20031;-75
2022/02/08 14:21:36;;;;;;;3.83;1.75;;;11.90;53.20;;;;;;5038950;28;20036;-75
2022/02/08 15:09:04;;;;;;;5.97;1.50;;;11.90;54.00;;;;;;5092935;28;20036;-75
2022/02/08 15:11:45;;;;;;;8.85;1.90;;;11.90;54.10;;;;;;5074746;28;20030;-75
2022/02/08 15:14:11;;;;;;;10.10;1.88;;;11.90;53.70;;;;;;5093108;28;20021;-75
2022/02/08 15:16:36;;;;;;;10.77;2.15;;;11.90;53.60;;;;;;5075105;28;20119;-75
2022/02/08 15:19:04;;;;;;;11.25;2.40;;;11.80;53.40;;;;;;5093136;28;20103;-75
2022/02/08 15:21:33;;;;;;;5.38;2.10;;;11.80;53.90;;;;;;5093104;28;20024;-75
2022/02/08 15:24:02;;;;;;;9.77;1.88;;;11.70;53.70;;;;;;5093125;28;20031;-75
2022/02/08 15:26:28;;;;;;;5.40;1.40;;;11.70;53.90;;;;;;5075368;28;20489;-75
2022/02/08 15:28:55;;;;;;;6.22;1.70;;;11.60;53.80;;;;;;5074925;28;20475;-74
2022/02/08 15:31:21;;;;;;;6.55;1.98;;;11.60;53.60;;;;;;5074866;28;20119;-75
2022/02/08 15:33:47;;;;;;;3.53;1.33;;;11.50;53.80;;;;;;5074253;28;20139;-75
2022/02/08 15:36:16;;;;;;;2.80;1.30;;;11.50;54.00;;;;;;5074881;28;20361;-74
2022/02/08 15:38:53;;;;;;;5.03;1.50;;;11.40;53.90;;;;;;5074910;28;20399;-75
2022/02/08 15:41:19;;;;;;;6.90;2.03;;;11.30;53.80;;;;;;5074829;28;20031;-75
2022/02/08 15:43:45;;;;;;;3.50;1.58;;;11.20;54.00;;;;;;5074685;28;20028;-75
2022/02/08 15:46:30;;;;;;;5.43;1.33;;;11.20;54.50;;;;;;5092941;28;20516;-74
2022/02/08 15:48:56;;;;;;;5.82;1.45;;;11.10;54.80;;;;;;5074684;28;20024;-75
2022/02/08 15:56:27;;;;;;;6.78;1.52;;;11.00;55.30;;;;;;5092919;28;20024;-75
2022/02/08 16:07:01;;;;;;;7.00;1.95;;;11.00;56.40;;;;;;5096385;28;20034;-75
2022/02/08 16:17:59;;;;;;;3.83;1.40;;;10.90;56.90;;;;;;5096430;28;20085;-75
2022/02/08 16:28:21;;;;;;;5.95;1.48;;;10.90;57.60;;;;;;5095917;28;20044;-75
2022/02/08 16:33:44;;;;;;;3.35;1.45;;;10.80;57.60;;;;;;5095851;28;20067;-75
2022/02/08 16:55:24;;;;;;;8.85;2.00;;;10.70;58.30;;;;;;5095722;28;20032;-74
2022/02/08 17:00:35;;;;;;;3.40;1.38;;;10.70;58.20;;;;;;5095733;28;20074;-75
2022/02/08 17:03:05;;;;;;;2.90;1.30;;;10.70;58.10;;;;;;5077090;28;20028;-74
2022/02/08 17:05:31;;;;;;;3.97;1.10;;;10.70;58.20;;;;;;5077149;28;20081;-74
2022/02/08 17:07:58;;;;;;;5.55;2.05;;;10.70;58.20;;;;;;5095296;28;20024;-75
2022/02/08 17:10:35;;;;;;;5.10;1.80;;;10.70;58.40;;;;;;5095317;28;20107;-75
2022/02/08 17:13:13;;;;;;;5.05;1.83;;;10.70;58.20;;;;;;5095458;28;20024;-75
2022/02/08 17:47:41;;;;;;;9.93;5.22;;;10.90;58.10;;;;;;5094748;28;20409;-77
2022/02/08 17:50:15;;;;;;;23.52;13.32;;;10.90;58.20;;;;;;5076502;28;20036;-74
2022/02/08 17:52:42;;;;;;;11.13;5.40;;;10.90;58.10;;;;;;5076525;28;20452;-75
2022/02/08 17:55:10;;;;;;;9.60;4.40;;;10.90;57.90;;;;;;5076405;28;20051;-75
2022/02/08 17:57:36;;;;;;;7.20;3.92;;;10.90;57.80;;;;;;5076341;28;20118;-74
2022/02/08 18:00:04;;;;;;;10.57;4.45;;;11.00;57.80;;;;;;5094472;28;20420;-75
2022/02/08 18:02:30;;;;;;;7.18;2.83;;;11.00;57.70;;;;;;5076091;28;20073;-75
2022/02/08 18:04:57;;;;;;;4.78;2.45;;;11.00;57.70;;;;;;5076189;28;20127;-75
2022/02/08 18:07:24;;;;;;;4.47;2.00;;;11.00;57.70;;;;;;5094586;28;20035;-74
2022/02/08 18:09:52;;;;;;;6.97;3.10;;;11.00;57.60;;;;;;5076039;28;20032;-74
2022/02/08 18:12:20;;;;;;;5.18;2.17;;;11.00;57.70;;;;;;5094333;28;20020;-75
2022/02/08 18:14:51;;;;;;;5.10;1.98;;;10.90;57.50;;;;;;5076027;28;20114;-74
2022/02/08 18:17:24;;;;;;;6.78;2.50;;;10.90;57.50;;;;;;5076033;28;20034;-75
2022/02/08 18:19:59;;;;;;;4.18;1.80;;;10.90;57.50;;;;;;5076031;28;20032;-74
2022/02/08 18:22:52;;;;;;;8.02;1.58;;;10.80;57.50;;;;;;5075926;28;20031;-75
2022/02/08 19:04:26;;;;;;;4.65;1.80;;;9.90;58.20;;;;;;5073435;28;20056;-75
2022/02/08 19:09:54;;;;;;;5.72;1.75;;;9.70;58.60;;;;;;5010989;28;20401;-75
2022/02/08 19:12:43;;;;;;;8.98;2.35;;;9.60;58.80;;;;;;4994765;28;20132;-75
2022/02/08 19:18:17;;;;;;;7.43;2.30;;;9.50;59.00;;;;;;5010962;28;20172;-74
2022/02/08 19:20:43;;;;;;;8.20;2.38;;;9.50;59.10;;;;;;5003282;28;20030;-75
2022/02/08 19:23:09;;;;;;;8.60;2.72;;;9.40;59.20;;;;;;4998393;28;20035;-77
2022/02/08 19:25:34;;;;;;;7.45;2.40;;;9.40;59.40;;;;;;4994999;28;20033;-75
2022/02/08 19:28:02;;;;;;;6.05;2.42;;;9.40;59.60;;;;;;5010739;28;20040;-74
2022/02/08 19:30:27;;;;;;;9.43;2.58;;;9.30;59.60;;;;;;4994135;28;20038;-74
2022/02/08 19:32:54;;;;;;;6.55;1.98;;;9.30;59.70;;;;;;5010371;28;20045;-74
2022/02/08 19:35:20;;;;;;;7.07;2.25;;;9.30;59.90;;;;;;5010413;28;20057;-74
2022/02/08 19:37:47;;;;;;;4.78;1.80;;;9.30;60.10;;;;;;5005956;28;20140;-75
2022/02/08 19:40:13;;;;;;;5.80;2.28;;;9.20;60.20;;;;;;4979030;28;20041;-74
2022/02/08 19:42:39;;;;;;;5.38;1.98;;;9.20;60.30;;;;;;5000543;28;20501;-74
2022/02/08 19:45:15;;;;;;;4.53;2.05;;;9.20;60.40;;;;;;5055078;28;20028;-75
2022/02/08 19:47:42;;;;;;;4.93;2.65;;;9.20;60.60;;;;;;5055052;28;20083;-76
2022/02/08 19:50:08;;;;;;;5.60;2.22;;;9.20;60.70;;;;;;5054954;28;20082;-76
2022/02/08 19:52:35;;;;;;;4.65;2.08;;;9.20;60.90;;;;;;5056347;28;20381;-74
2022/02/08 19:57:49;;;;;;;5.97;2.05;;;9.20;61.00;;;;;;5076262;28;20090;-74
2022/02/08 20:00:20;;;;;;;5.82;2.50;;;9.20;61.00;;;;;;5076043;28;20020;-74
2022/02/08 20:02:50;;;;;;;5.63;2.42;;;9.20;61.30;;;;;;5058221;28;20025;-74
2022/02/08 20:05:16;;;;;;;7.90;2.28;;;9.20;61.40;;;;;;5058237;28;20031;-75
2022/02/08 20:07:44;;;;;;;10.38;2.35;;;9.20;61.40;;;;;;5076065;28;20029;-75
2022/02/08 20:10:12;;;;;;;6.93;3.13;;;9.20;61.30;;;;;;5076123;28;20080;-75
2022/02/08 20:12:39;;;;;;;4.35;2.20;;;9.20;61.40;;;;;;5072873;28;20032;-74
2022/02/08 20:15:07;;;;;;;6.25;2.38;;;9.20;61.50;;;;;;5075581;28;20034;-74
2022/02/08 20:17:33;;;;;;;7.68;2.45;;;9.20;61.60;;;;;;5075853;28;20039;-75
2022/02/08 20:20:09;;;;;;;5.47;2.15;;;9.20;61.50;;;;;;5057764;28;20472;-75
2022/02/08 20:22:36;;;;;;;4.93;2.03;;;9.20;61.70;;;;;;5058347;28;20090;-74
2022/02/08 20:25:05;;;;;;;5.93;1.80;;;9.30;61.60;;;;;;5076298;28;20411;-74
2022/02/08 20:27:51;;;;;;;9.88;2.40;;;9.30;61.50;;;;;;5075379;28;20024;-74
2022/02/08 20:30:24;;;;;;;5.85;2.00;;;9.30;61.30;;;;;;5074473;28;20028;-74
2022/02/08 20:32:52;;;;;;;6.15;2.65;;;9.40;61.30;;;;;;5074254;28;20044;-72
2022/02/08 20:35:19;;;;;;;6.55;1.83;;;9.40;61.20;;;;;;5075907;28;20024;-75
2022/02/08 20:37:48;;;;;;;17.63;2.33;;;9.50;61.30;;;;;;5057674;28;20028;-74
2022/02/08 20:40:18;;;;;;;5.13;2.13;;;9.50;61.10;;;;;;5055753;28;20461;-78
2022/02/08 20:42:44;;;;;;;7.47;2.08;;;9.60;61.00;;;;;;5057623;28;20586;-75
2022/02/08 20:45:11;;;;;;;6.80;2.15;;;9.60;60.80;;;;;;5075586;28;20028;-75
2022/02/08 20:47:41;;;;;;;5.57;1.80;;;9.70;60.80;;;;;;5075454;28;20024;-75
2022/02/08 20:50:17;;;;;;;5.18;2.00;;;9.80;60.80;;;;;;5064182;28;20091;-75
2022/02/08 20:52:55;;;;;;;5.90;1.98;;;9.80;60.50;;;;;;5037371;28;20124;-75
2022/02/08 20:55:25;;;;;;;7.75;2.00;;;9.90;60.20;;;;;;5037530;28;20055;-75
2022/02/08 20:58:02;;;;;;;7.63;3.90;;;9.90;60.00;;;;;;5037451;28;20460;-74
2022/02/08 21:00:29;;;;;;;7.18;4.10;;;9.90;59.90;;;;;;5037349;28;20048;-75